Date,TemperatureHighF,TemperatureAvgF,TemperatureLowF,DewpointHighF,DewpointAvgF,DewpointLowF,HumidityHigh,HumidityAvg,HumidityLow,PressureMaxIn,PressureMinIn,WindSpeedMaxMPH,WindSpeedAvgMPH,GustSpeedMaxMPH,PrecipitationSumIn
2013-3-1,64.0,44.5,23.0,37.0,26.0,18.0,87,53,25,30.37,30.19,23,6,23,0.00
2013-3-2,69.0,46.7,26.0,39.0,31.3,22.0,85,58,33,30.50,30.23,8,3,8,0.00
2013-3-3,82.0,58.0,32.0,42.0,32.4,27.0,86,46,18,30.23,29.78,17,8,22,0.00
2013-3-4,88.0,65.3,45.0,44.0,34.4,29.0,65,35,13,29.84,29.66,17,8,21,0.00
2013-3-5,65.0,49.2,32.0,47.0,29.1,16.0,75,49,26,30.42,29.80,29,12,31,0.00
2013-3-6,72.0,44.7,22.0,29.0,22.4,14.0,77,46,19,30.47,30.14,14,5,16,0.00
2013-3-7,81.0,56.6,36.0,50.0,38.2,22.0,85,53,32,30.18,29.99,17,7,17,0.00
2013-3-8,73.0,62.7,50.0,72.0,61.8,47.0,100,97,84,30.06,29.88,19,10,21,0.00
2013-3-9,89.0,69.3,49.0,70.0,56.0,36.0,100,68,33,29.88,29.60,16,10,21,0.02
2013-3-10,59.0,50.2,36.0,51.0,35.1,22.0,100,60,29,30.15,29.80,26,14,26,0.02
2013-3-11,74.0,47.6,22.0,36.0,27.1,16.0,83,50,23,30.22,29.95,11,4,12,0.02
2013-3-12,79.0,56.0,37.0,39.0,33.5,27.0,67,46,20,30.26,30.01,19,8,21,0.00
2013-3-13,83.0,70.5,50.0,45.0,39.7,33.0,55,34,24,30.42,30.19,15,4,17,0.00
2013-3-14,87.0,64.4,44.0,53.0,44.2,36.0,81,52,24,30.32,30.12,12,6,15,0.00
2013-3-15,91.0,67.4,46.0,57.0,47.5,40.0,96,55,22,30.17,29.88,14,6,16,0.00
2013-3-16,96.0,73.3,53.0,56.0,47.4,39.0,88,46,15,29.90,29.60,15,8,16,0.00
2013-3-17,85.0,64.4,47.0,53.0,47.6,42.0,85,57,31,29.86,29.63,12,5,13,0.00
2013-3-18,75.0,59.8,44.0,48.0,43.8,36.0,80,57,38,29.97,29.70,17,7,20,0.00
2013-3-19,93.0,62.0,38.0,54.0,45.3,34.0,95,62,17,30.08,29.78,16,5,19,0.00
2013-3-20,75.0,59.8,46.0,50.0,40.1,37.0,73,51,28,30.31,29.98,15,8,16,0.00
2013-3-21,88.0,66.6,46.0,59.0,49.3,36.0,81,56,32,29.98,29.47,16,8,21,0.00
2013-3-22,69.0,58.2,46.0,67.0,53.7,44.0,100,86,53,29.82,29.59,19,8,19,0.00
2013-3-23,85.0,62.6,47.0,55.0,43.7,29.0,94,60,18,29.87,29.56,26,8,31,0.00
2013-3-24,56.0,44.9,32.0,49.0,29.3,22.0,86,57,32,30.29,29.87,26,13,29,0.00
2013-3-25,62.0,42.3,22.0,26.0,22.1,17.0,83,49,22,30.41,30.18,11,4,13,0.00
2013-3-26,74.0,47.5,24.0,33.0,24.8,18.0,82,47,19,30.48,30.17,13,5,14,0.00
2013-3-27,83.0,59.2,36.0,50.0,39.4,22.0,75,50,31,30.23,30.00,18,8,22,0.00
2013-3-28,87.0,63.9,43.0,85.0,57.1,43.0,100,82,39,30.13,29.98,16,7,19,0.00
2013-3-29,90.0,66.5,50.0,87.0,62.3,50.0,100,88,49,30.12,29.97,14,6,14,0.00
2013-3-30,94.0,71.5,52.0,86.0,61.4,-99.9,100,79,29,30.09,29.81,13,6,18,0.00
2013-3-31,82.0,70.2,61.0,63.0,57.5,51.0,92,67,40,29.99,29.85,19,7,22,0.00